Time;durP1;ratioP1;P1;durP2;ratioP2;P2;SDS_P1;SDS_P2;PMS_P1;PMS_P2;Temp;Humidity;BMP_temperature;BMP_pressure;BME280_temperature;BME280_humidity;BME280_pressure;Samples;Min_cycle;Max_cycle;Signal;HPM_P1;HPM_P2
2023/03/08 00:00:31;;;;;;;4.45;1.58;;;;;;;0.13;73.77;99921.34;7391724;19;20003;-55
2023/03/08 00:02:57;;;;;;;6.80;1.90;;;;;;;0.16;73.90;99925.56;7390504;19;20112;-55
2023/03/08 00:05:23;;;;;;;7.15;1.98;;;;;;;0.22;73.78;99927.88;7389162;19;20006;-56
2023/03/08 00:07:51;;;;;;;5.93;1.70;;;;;;;0.19;73.75;99934.09;7389693;19;20519;-56
2023/03/08 00:10:17;;;;;;;7.07;1.90;;;;;;;0.22;73.69;99933.09;7390472;19;20392;-56
2023/03/08 00:12:42;;;;;;;5.70;2.08;;;;;;;0.04;74.44;99939.28;7388402;19;20002;-55
2023/03/08 00:15:08;;;;;;;6.53;2.00;;;;;;;0.10;74.34;99938.94;7387508;19;20002;-55
2023/03/08 00:17:37;;;;;;;6.93;2.00;;;;;;;0.15;74.11;99942.19;7390442;19;20077;-56
2023/03/08 00:20:05;;;;;;;3.92;1.90;;;;;;;0.08;74.51;99941.66;7390129;19;20400;-56
2023/03/08 00:22:37;;;;;;;4.47;1.95;;;;;;;0.17;74.29;99942.94;7391318;19;20018;-55
2023/03/08 00:25:04;;;;;;;6.88;2.30;;;;;;;0.05;74.43;99940.97;7390239;19;20312;-55
2023/03/08 00:27:29;;;;;;;7.32;2.15;;;;;;;-0.13;75.47;99948.81;7388099;19;20145;-55
2023/03/08 00:29:55;;;;;;;6.88;2.30;;;;;;;-0.05;75.41;99943.22;7388638;19;20011;-55
2023/03/08 00:32:20;;;;;;;8.57;2.30;;;;;;;-0.03;75.09;99946.56;7390793;19;20010;-56
2023/03/08 00:34:46;;;;;;;8.13;2.20;;;;;;;-0.01;75.06;99946.50;7387125;19;19999;-56
2023/03/08 00:37:13;;;;;;;8.25;2.80;;;;;;;0.09;74.42;99942.47;7387715;19;20007;-54
2023/03/08 00:39:38;;;;;;;6.03;2.50;;;;;;;0.02;74.80;99948.94;7390572;19;20070;-53
2023/03/08 00:42:04;;;;;;;6.55;2.50;;;;;;;0.02;74.89;99948.94;7389280;19;20007;-54
2023/03/08 00:44:29;;;;;;;6.10;2.10;;;;;;;0.01;74.87;99945.50;7385386;19;20358;-56
2023/03/08 00:46:55;;;;;;;6.03;2.42;;;;;;;0.03;74.67;99946.28;7390225;19;20051;-56
2023/03/08 00:49:21;;;;;;;5.75;2.13;;;;;;;-0.03;74.98;99941.34;7390715;19;19987;-56
2023/03/08 00:51:47;;;;;;;7.07;2.22;;;;;;;0.00;74.89;99946.41;7387805;19;19999;-57
2023/03/08 00:54:13;;;;;;;5.55;2.22;;;;;;;-0.06;75.00;99949.34;7388295;19;20462;-58
2023/03/08 00:56:39;;;;;;;5.50;2.13;;;;;;;-0.09;75.37;99945.13;7392943;19;19994;-57
2023/03/08 00:59:05;;;;;;;7.10;2.20;;;;;;;-0.07;75.04;99948.50;7393370;19;20002;-59
2023/03/08 01:01:31;;;;;;;5.40;2.10;;;;;;;-0.07;75.50;99947.66;7393918;19;20002;-57
2023/03/08 01:03:58;;;;;;;7.90;2.20;;;;;;;-0.09;75.27;99945.13;7390584;19;20073;-58
2023/03/08 01:06:23;;;;;;;5.95;1.95;;;;;;;-0.10;75.26;99953.88;7393580;19;19991;-57
2023/03/08 01:08:49;;;;;;;7.63;2.15;;;;;;;0.01;74.75;99955.09;7392964;19;20534;-57
2023/03/08 01:11:16;;;;;;;5.68;2.20;;;;;;;-0.06;75.08;99949.34;7393217;19;20058;-57
2023/03/08 01:13:42;;;;;;;7.57;2.15;;;;;;;-0.07;75.10;99950.25;7392812;19;19999;-57
2023/03/08 01:16:21;;;;;;;6.63;1.88;;;;;;;-0.00;74.87;99950.81;7390154;19;20002;-58
2023/03/08 01:18:47;;;;;;;4.72;1.95;;;;;;;-0.06;74.88;99949.34;7391706;19;20321;-57
2023/03/08 01:21:12;;;;;;;6.78;2.17;;;;;;;-0.05;74.73;99943.22;7393345;19;20099;-57
2023/03/08 01:23:38;;;;;;;3.92;1.90;;;;;;;-0.06;75.12;99944.13;7399045;19;20337;-55
2023/03/08 01:26:06;;;;;;;4.70;2.05;;;;;;;-0.10;75.08;99938.19;7400527;19;19994;-57
2023/03/08 01:28:33;;;;;;;4.03;2.10;;;;;;;-0.10;74.81;99940.81;7400380;19;20025;-56
2023/03/08 01:31:06;;;;;;;4.97;1.90;;;;;;;-0.11;75.05;99931.31;7400270;19;20002;-57
2023/03/08 01:33:32;;;;;;;4.88;2.00;;;;;;;-0.19;75.22;99927.41;7398889;19;20002;-57
2023/03/08 01:35:57;;;;;;;6.05;2.03;;;;;;;-0.21;75.45;99918.78;7397043;19;20002;-56
2023/03/08 01:38:23;;;;;;;3.58;2.03;;;;;;;-0.20;75.54;99920.50;7401160;19;19991;-55
2023/03/08 01:40:48;;;;;;;6.43;2.20;;;;;;;-0.16;75.24;99920.25;7390125;19;20006;-56
2023/03/08 01:43:35;;;;;;;6.03;2.35;;;;;;;-0.12;75.04;99919.19;7392172;19;20077;-56
2023/03/08 01:46:32;;;;;;;6.07;2.00;;;;;;;-0.07;74.76;99925.00;7393023;19;20002;-56
2023/03/08 01:49:12;;;;;;;4.78;2.00;;;;;;;-0.10;74.74;99922.53;7396599;19;20486;-56
2023/03/08 01:52:03;;;;;;;4.85;2.10;;;;;;;-0.18;75.17;99919.47;7395145;19;20526;-56
2023/03/08 01:54:34;;;;;;;7.32;1.77;;;;;;;-0.20;74.92;99913.50;7391650;19;20006;-57
2023/03/08 01:57:22;;;;;;;6.07;2.17;;;;;;;-0.16;74.96;99907.22;7394874;19;20521;-55
2023/03/08 01:59:49;;;;;;;4.15;2.03;;;;;;;-0.13;74.64;99906.19;7396183;19;20033;-55
2023/03/08 02:02:21;;;;;;;5.38;2.05;;;;;;;-0.27;75.13;99904.31;7396373;19;20007;-57
2023/03/08 02:04:46;;;;;;;6.25;2.00;;;;;;;-0.21;75.14;99906.59;7393045;19;20006;-57
2023/03/08 02:07:12;;;;;;;4.63;2.10;;;;;;;-0.21;75.35;99905.75;7396108;19;20040;-57
2023/03/08 02:09:37;;;;;;;5.90;2.35;;;;;;;-0.13;75.12;99900.97;7393185;19;20512;-57
2023/03/08 02:12:07;;;;;;;5.40;2.25;;;;;;;-0.10;74.81;99903.44;7393240;19;20032;-58
2023/03/08 02:14:33;;;;;;;6.32;2.20;;;;;;;-0.18;75.06;99902.97;7390541;19;20431;-56
2023/03/08 02:16:59;;;;;;;6.35;2.15;;;;;;;-0.19;75.11;99901.31;7395441;19;20005;-56
2023/03/08 02:19:56;;;;;;;4.03;2.30;;;;;;;-0.15;75.22;99901.06;7395251;19;20058;-56
2023/03/08 02:22:22;;;;;;;4.32;2.08;;;;;;;-0.12;74.63;99902.69;7393513;19;20538;-55
2023/03/08 02:24:48;;;;;;;5.40;2.42;;;;;;;-0.30;75.36;99894.03;7391798;19;20007;-56
2023/03/08 02:27:22;;;;;;;5.53;2.40;;;;;;;-0.27;75.33;99893.03;7394781;19;20016;-56
2023/03/08 02:29:47;;;;;;;;;;;;;;;-0.37;75.84;99900.47;7395342;19;20451;-58
2023/03/08 02:32:14;;;;;;;6.10;2.25;;;;;;;-0.38;75.54;99897.00;7394653;19;20342;-56
2023/03/08 02:34:40;;;;;;;7.68;2.92;;;;;;;-0.35;75.77;99902.09;7390363;19;20070;-57
2023/03/08 02:37:06;;;;;;;7.90;3.10;;;;;;;-0.34;75.54;99906.38;7394128;19;20006;-56
2023/03/08 02:39:31;;;;;;;7.22;3.53;;;;;;;-0.30;75.60;99910.50;7394132;19;20003;-55
2023/03/08 02:41:57;;;;;;;7.43;3.70;;;;;;;-0.34;75.83;99905.53;7394426;19;20378;-57
2023/03/08 02:44:22;;;;;;;6.03;2.95;;;;;;;-0.29;75.47;99906.13;7392234;19;20026;-56
2023/03/08 02:46:48;;;;;;;9.02;3.78;;;;;;;-0.34;75.55;99902.94;7393522;19;20006;-54
2023/03/08 02:49:14;;;;;;;8.65;3.65;;;;;;;-0.38;76.02;99906.63;7394066;19;20009;-56
2023/03/08 02:51:39;;;;;;;9.05;3.95;;;;;;;-0.38;75.98;99906.63;7393571;19;20296;-56
2023/03/08 02:54:05;;;;;;;7.25;3.63;;;;;;;-0.23;75.56;99911.06;7392148;19;20002;-56
2023/03/08 02:56:30;;;;;;;10.10;4.10;;;;;;;-0.13;75.03;99914.03;7393674;19;20023;-56
2023/03/08 02:58:55;;;;;;;8.85;4.22;;;;;;;-0.14;75.48;99915.78;7393457;19;20092;-56
2023/03/08 03:01:22;;;;;;;9.27;4.10;;;;;;;-0.13;75.15;99907.06;7392832;19;20336;-57
2023/03/08 03:03:47;;;;;;;7.90;3.90;;;;;;;-0.11;75.47;99905.19;7392486;19;20466;-57
2023/03/08 03:06:18;;;;;;;10.63;5.10;;;;;;;-0.03;75.05;99904.81;7390488;19;20003;-56
2023/03/08 03:08:43;;;;;;;11.02;5.75;;;;;;;-0.04;75.20;99903.13;7393426;19;20006;-57
2023/03/08 03:11:14;;;;;;;12.60;6.28;;;;;;;0.10;74.66;99907.59;7393934;19;20076;-56
2023/03/08 03:13:39;;;;;;;12.45;6.57;;;;;;;0.09;74.70;99901.53;7392720;19;19999;-57
2023/03/08 03:16:10;;;;;;;13.93;6.30;;;;;;;0.08;74.87;99912.06;7390827;19;20023;-54
2023/03/08 03:18:36;;;;;;;14.77;7.05;;;;;;;-0.11;75.31;99897.38;7393908;19;20007;-55
2023/03/08 03:21:07;;;;;;;13.13;7.07;;;;;;;-0.13;75.75;99896.63;7393051;19;19999;-56
2023/03/08 03:23:33;;;;;;;12.50;6.80;;;;;;;-0.17;75.80;99897.69;7391588;19;20002;-56
2023/03/08 03:26:14;;;;;;;13.35;6.55;;;;;;;-0.20;75.97;99895.25;7391755;19;20332;-55
2023/03/08 03:28:39;;;;;;;12.73;7.07;;;;;;;-0.31;76.37;99910.59;7392454;19;20022;-56
2023/03/08 03:31:10;;;;;;;13.75;6.90;;;;;;;-0.33;76.52;99902.84;7393088;19;20336;-57
2023/03/08 03:33:35;;;;;;;14.15;6.18;;;;;;;-0.41;76.86;99902.38;7390780;19;20473;-55
2023/03/08 03:36:02;;;;;;;11.10;6.10;;;;;;;-0.30;76.51;99901.84;7390157;19;20054;-56
2023/03/08 03:38:27;;;;;;;12.25;6.68;;;;;;;-0.25;76.31;99904.22;7391162;19;19994;-56
2023/03/08 03:41:04;;;;;;;11.98;6.50;;;;;;;-0.24;76.15;99900.72;7391320;19;19994;-57
2023/03/08 03:43:30;;;;;;;14.23;6.10;;;;;;;-0.28;76.30;99902.63;7390887;19;20007;-56
2023/03/08 03:45:57;;;;;;;12.25;7.07;;;;;;;-0.21;76.06;99898.75;7390549;19;20010;-57
2023/03/08 03:48:22;;;;;;;14.02;7.78;;;;;;;-0.21;76.00;99896.16;7390851;19;20006;-57
2023/03/08 03:51:00;;;;;;;11.77;6.93;;;;;;;-0.15;76.13;99903.66;7392655;19;20018;-55
2023/03/08 03:53:27;;;;;;;12.60;6.35;;;;;;;-0.09;75.86;99894.69;7391514;19;20007;-54
2023/03/08 03:55:53;;;;;;;12.00;6.97;;;;;;;-0.12;76.07;99902.69;7389587;19;20019;-55
2023/03/08 03:58:18;;;;;;;11.52;6.95;;;;;;;-0.18;76.24;99898.59;7389812;19;20551;-54
2023/03/08 04:00:44;;;;;;;13.52;6.93;;;;;;;-0.13;76.05;99900.97;7391812;19;20327;-54
2023/03/08 04:03:10;;;;;;;12.65;7.57;;;;;;;-0.17;75.94;99895.09;7390522;19;20490;-55
2023/03/08 04:05:35;;;;;;;12.93;7.28;;;;;;;-0.26;76.39;99905.97;7391735;19;20003;-54
2023/03/08 04:08:01;;;;;;;14.52;8.05;;;;;;;-0.37;76.71;99905.69;7392520;19;20013;-55
2023/03/08 04:10:26;;;;;;;16.20;8.48;;;;;;;-0.22;76.36;99914.50;7391229;19;20002;-55
2023/03/08 04:12:52;;;;;;;13.77;8.50;;;;;;;-0.12;75.96;99913.97;7390530;19;20036;-55
2023/03/08 04:15:18;;;;;;;13.50;8.25;;;;;;;-0.09;75.62;99903.38;7389953;19;20482;-54
2023/03/08 04:17:43;;;;;;;15.07;9.40;;;;;;;-0.12;75.75;99906.13;7391496;19;20022;-54
2023/03/08 04:20:09;;;;;;;14.90;8.73;;;;;;;-0.12;76.04;99918.34;7391654;19;20317;-55
2023/03/08 04:22:35;;;;;;;13.77;8.60;;;;;;;-0.09;75.78;99920.81;7391833;19;20313;-54
2023/03/08 04:25:01;;;;;;;15.57;9.40;;;;;;;-0.12;75.90;99913.13;7388540;19;20003;-54
2023/03/08 04:27:26;;;;;;;19.02;9.57;;;;;;;-0.15;76.10;99911.50;7390929;19;20009;-55
2023/03/08 04:29:52;;;;;;;13.85;8.48;;;;;;;-0.08;75.91;99904.22;7390859;19;20029;-54
2023/03/08 04:32:17;;;;;;;16.35;9.10;;;;;;;-0.09;75.73;99905.97;7390725;19;20054;-53
2023/03/08 04:34:43;;;;;;;15.00;8.80;;;;;;;-0.11;76.15;99906.97;7385933;19;20475;-55
2023/03/08 04:37:12;;;;;;;18.77;9.75;;;;;;;-0.09;75.92;99905.97;7391494;19;20509;-54
2023/03/08 04:39:37;;;;;;;15.48;8.40;;;;;;;-0.06;75.99;99905.78;7390979;19;20003;-54
2023/03/08 04:42:03;;;;;;;14.10;9.15;;;;;;;-0.09;75.90;99903.38;7390524;19;20019;-56
2023/03/08 04:44:29;;;;;;;14.32;8.95;;;;;;;-0.11;76.23;99901.75;7387003;19;20119;-56
2023/03/08 04:46:54;;;;;;;16.98;8.80;;;;;;;-0.13;76.18;99895.75;7390608;19;19986;-56
2023/03/08 04:49:20;;;;;;;15.65;9.25;;;;;;;-0.14;75.83;99910.56;7390680;19;20546;-56
2023/03/08 04:51:45;;;;;;;21.30;10.50;;;;;;;-0.20;76.29;99905.69;7390301;19;19998;-56
2023/03/08 04:54:11;;;;;;;14.80;8.68;;;;;;;-0.18;76.08;99906.44;7387754;19;20011;-56
2023/03/08 04:56:36;;;;;;;15.90;8.88;;;;;;;-0.15;75.98;99902.84;7388145;19;19990;-56
2023/03/08 04:59:02;;;;;;;13.82;8.65;;;;;;;-0.23;76.22;99899.78;7398234;19;19990;-56
2023/03/08 05:01:28;;;;;;;16.25;8.77;;;;;;;-0.27;76.54;99893.88;7397558;19;20002;-56
2023/03/08 05:03:54;;;;;;;17.25;9.90;;;;;;;-0.21;76.31;99903.97;7395376;19;20020;-56
2023/03/08 05:06:21;;;;;;;14.90;7.97;;;;;;;-0.17;75.97;99897.69;7397374;19;19994;-56
2023/03/08 05:08:47;;;;;;;18.40;10.30;;;;;;;-0.27;76.01;99893.88;7398091;19;20014;-56
2023/03/08 05:11:25;;;;;;;14.77;9.60;;;;;;;-0.24;76.20;99890.25;7397931;19;19998;-56
2023/03/08 05:13:52;;;;;;;14.63;9.48;;;;;;;-0.19;75.98;99881.25;7395613;19;20490;-56
2023/03/08 05:16:18;;;;;;;15.02;8.90;;;;;;;-0.25;76.05;99876.34;7393681;19;20002;-56
2023/03/08 05:18:43;;;;;;;15.52;9.57;;;;;;;-0.25;76.00;99878.97;7397708;19;20005;-56
2023/03/08 05:21:12;;;;;;;14.95;9.20;;;;;;;-0.34;76.47;99877.66;7397663;19;19995;-56
2023/03/08 05:23:38;;;;;;;16.65;9.20;;;;;;;-0.29;76.23;99874.81;7395560;19;19991;-56
2023/03/08 05:26:05;;;;;;;18.48;10.25;;;;;;;-0.27;76.08;99875.59;7395940;19;20014;-56
2023/03/08 05:28:33;;;;;;;17.88;9.50;;;;;;;-0.34;76.35;99872.44;7395242;19;19998;-56
2023/03/08 05:31:02;;;;;;;17.02;10.02;;;;;;;-0.35;76.43;99881.22;7396645;19;20018;-56
2023/03/08 05:33:27;;;;;;;15.55;9.45;;;;;;;-0.29;76.10;99877.44;7396380;19;20002;-56
2023/03/08 05:35:53;;;;;;;17.48;10.18;;;;;;;-0.22;75.70;99877.97;7393396;19;19998;-56
2023/03/08 05:38:20;;;;;;;15.13;9.55;;;;;;;-0.21;75.96;99872.66;7396210;19;20009;-56
2023/03/08 05:40:46;;;;;;;19.48;11.23;;;;;;;-0.22;75.73;99870.13;7397628;19;20467;-56
2023/03/08 05:43:12;;;;;;;15.77;9.70;;;;;;;-0.24;75.77;99879.81;7394340;19;20003;-56
2023/03/08 05:45:37;;;;;;;16.33;10.15;;;;;;;-0.27;76.21;99872.16;7390789;19;20018;-56
2023/03/08 05:48:02;;;;;;;16.95;10.40;;;;;;;-0.21;75.72;99874.44;7395730;19;20575;-56
2023/03/08 05:50:28;;;;;;;19.13;10.38;;;;;;;-0.24;76.03;99872.00;7395738;19;19999;-56
2023/03/08 05:52:53;;;;;;;15.25;9.80;;;;;;;-0.34;76.39;99867.22;7395287;19;20351;-56
2023/03/08 05:55:19;;;;;;;16.90;10.18;;;;;;;-0.36;76.35;99866.50;7393937;19;20030;-57
2023/03/08 05:57:44;;;;;;;16.48;10.32;;;;;;;-0.30;76.15;99860.09;7396414;19;19995;-56
2023/03/08 06:00:10;;;;;;;17.58;10.25;;;;;;;-0.29;76.23;99862.59;7395276;19;20010;-57
2023/03/08 06:02:36;;;;;;;17.10;10.27;;;;;;;-0.31;76.32;99853.19;7395308;19;20002;-56
2023/03/08 06:05:01;;;;;;;17.67;10.32;;;;;;;-0.21;75.91;99861.38;7392328;19;20453;-56
2023/03/08 06:07:27;;;;;;;16.98;10.60;;;;;;;-0.27;76.15;99854.72;7392137;19;20001;-57
2023/03/08 06:09:53;;;;;;;18.92;10.45;;;;;;;-0.34;76.20;99851.56;7394176;19;20006;-57
2023/03/08 06:12:19;;;;;;;19.80;10.68;;;;;;;-0.35;76.26;99849.06;7395487;19;20005;-56
2023/03/08 06:14:44;;;;;;;17.52;10.35;;;;;;;-0.34;76.45;99846.34;7391257;19;20002;-56
2023/03/08 06:17:09;;;;;;;21.25;10.88;;;;;;;-0.30;76.23;99847.03;7393305;19;20345;-56
2023/03/08 06:19:35;;;;;;;18.13;10.82;;;;;;;-0.23;75.89;99850.19;7394255;19;20347;-58
2023/03/08 06:22:00;;;;;;;17.40;9.98;;;;;;;-0.24;76.00;99849.34;7395222;19;20011;-58
2023/03/08 06:24:26;;;;;;;15.63;9.63;;;;;;;-0.18;76.07;99842.94;7392699;19;20010;-57
2023/03/08 06:26:53;;;;;;;20.08;11.23;;;;;;;-0.17;75.61;99847.25;7394450;19;19995;-58
2023/03/08 06:29:18;;;;;;;17.70;10.90;;;;;;;-0.18;75.72;99850.78;7394742;19;20034;-56
2023/03/08 06:31:44;;;;;;;18.33;10.85;;;;;;;-0.19;75.79;99851.72;7394293;19;20003;-55
2023/03/08 06:34:11;;;;;;;18.13;10.05;;;;;;;-0.10;75.42;99852.06;7392181;19;20320;-55
2023/03/08 06:36:37;;;;;;;17.10;10.40;;;;;;;-0.08;75.25;99857.22;7391546;19;20005;-55
2023/03/08 06:39:02;;;;;;;17.67;10.55;;;;;;;-0.05;75.51;99863.13;7393920;19;20069;-55
2023/03/08 06:41:29;;;;;;;19.92;11.25;;;;;;;-0.02;75.38;99861.25;7392918;19;20026;-55
2023/03/08 06:43:55;;;;;;;17.95;10.70;;;;;;;-0.03;75.34;99854.34;7388038;19;20020;-56
2023/03/08 06:46:21;;;;;;;19.15;11.18;;;;;;;-0.04;75.46;99850.91;7391809;19;19999;-56
2023/03/08 06:48:48;;;;;;;17.38;10.65;;;;;;;-0.11;75.46;99858.22;7393417;19;19995;-57
2023/03/08 06:51:14;;;;;;;19.17;11.38;;;;;;;-0.05;75.26;99857.06;7393560;19;20006;-57
2023/03/08 06:53:39;;;;;;;20.88;11.75;;;;;;;-0.07;75.25;99857.13;7392146;19;19995;-56
2023/03/08 06:56:07;;;;;;;18.50;11.07;;;;;;;0.02;75.37;99845.34;7390429;19;19997;-57
2023/03/08 06:58:34;;;;;;;18.20;10.32;;;;;;;0.08;74.84;99838.97;7391550;19;20099;-58
2023/03/08 07:01:00;;;;;;;17.10;10.65;;;;;;;0.11;74.85;99839.66;7393613;19;20005;-58
2023/03/08 07:03:26;;;;;;;20.30;11.52;;;;;;;0.13;74.92;99827.34;7392779;19;20362;-57
2023/03/08 07:05:56;;;;;;;20.02;11.80;;;;;;;0.12;75.01;99827.44;7392843;19;20474;-56
2023/03/08 07:08:22;;;;;;;18.13;11.25;;;;;;;0.08;74.85;99818.06;7393632;19;20006;-56
2023/03/08 07:10:47;;;;;;;22.23;11.18;;;;;;;0.09;75.18;99820.59;7391145;19;19987;-57
2023/03/08 07:13:13;;;;;;;21.08;11.35;;;;;;;0.11;75.13;99817.91;7390601;19;20073;-57
2023/03/08 07:15:39;;;;;;;19.65;12.13;;;;;;;0.16;74.90;99821.13;7391480;19;20016;-56
2023/03/08 07:18:05;;;;;;;21.05;11.77;;;;;;;0.12;75.07;99820.44;7393448;19;20462;-56
2023/03/08 07:20:30;;;;;;;17.90;11.40;;;;;;;0.20;74.73;99826.09;7390219;19;20006;-57
2023/03/08 07:22:56;;;;;;;19.20;11.60;;;;;;;0.32;74.65;99821.13;7392642;19;20308;-57
2023/03/08 07:25:21;;;;;;;22.33;12.35;;;;;;;0.27;74.49;99823.16;7391617;19;20492;-57
2023/03/08 07:27:47;;;;;;;18.48;11.15;;;;;;;0.26;74.79;99829.31;7390773;19;20478;-56
2023/03/08 07:30:14;;;;;;;21.23;10.85;;;;;;;0.32;74.74;99821.97;7390844;19;19991;-56
2023/03/08 07:32:43;;;;;;;20.92;11.43;;;;;;;0.38;74.46;99818.19;7392148;19;20356;-56
2023/03/08 07:35:11;;;;;;;22.85;11.93;;;;;;;0.51;74.04;99823.56;7389145;19;20324;-57
2023/03/08 07:37:37;;;;;;;19.20;11.35;;;;;;;0.52;74.08;99815.66;7391902;19;20006;-56
2023/03/08 07:40:03;;;;;;;19.70;11.23;;;;;;;0.61;73.76;99814.28;7390266;19;20462;-57
2023/03/08 07:42:29;;;;;;;20.38;11.93;;;;;;;0.65;73.65;99816.63;7389843;19;20468;-56
2023/03/08 07:44:55;;;;;;;20.15;11.55;;;;;;;0.59;73.75;99816.97;7388524;19;20007;-56
2023/03/08 07:47:20;;;;;;;22.77;11.10;;;;;;;0.64;73.51;99825.41;7391926;19;20002;-55
2023/03/08 07:49:46;;;;;;;19.60;11.15;;;;;;;0.75;73.26;99832.66;7391227;19;20030;-57
2023/03/08 07:52:12;;;;;;;21.60;11.23;;;;;;;0.76;73.15;99831.72;7392887;19;20038;-57
2023/03/08 07:54:38;;;;;;;17.48;10.13;;;;;;;0.71;73.50;99841.59;7390233;19;20471;-57
2023/03/08 07:57:04;;;;;;;21.42;10.95;;;;;;;0.74;73.68;99832.72;7389990;19;20022;-58
2023/03/08 07:59:29;;;;;;;16.90;10.45;;;;;;;0.83;73.10;99840.06;7391634;19;20054;-57
2023/03/08 08:01:55;;;;;;;19.45;10.73;;;;;;;0.98;72.60;99835.72;7391564;19;20036;-57
2023/03/08 08:04:21;;;;;;;16.75;10.65;;;;;;;0.92;72.70;99840.38;7390879;19;20030;-58
2023/03/08 08:06:48;;;;;;;17.67;10.75;;;;;;;1.17;72.17;99834.59;7391576;19;20002;-58
2023/03/08 08:09:13;;;;;;;18.10;9.85;;;;;;;1.14;71.91;99834.75;7391886;19;20002;-58
2023/03/08 08:11:40;;;;;;;18.70;11.02;;;;;;;0.85;72.53;99831.19;7389445;19;20039;-58
2023/03/08 08:14:05;;;;;;;17.20;9.40;;;;;;;0.81;73.06;99834.06;7390489;19;20014;-58
2023/03/08 08:16:38;;;;;;;18.35;10.18;;;;;;;0.90;72.79;99841.38;7388252;19;20355;-57
2023/03/08 08:19:03;;;;;;;18.85;10.10;;;;;;;0.99;72.42;99833.03;7390267;19;20514;-56
2023/03/08 08:21:29;;;;;;;18.27;9.98;;;;;;;1.03;72.18;99836.31;7391359;19;20003;-57
2023/03/08 08:23:56;;;;;;;18.20;9.77;;;;;;;1.15;71.87;99840.84;7390568;19;20002;-57
2023/03/08 08:26:22;;;;;;;17.27;9.80;;;;;;;1.23;71.79;99843.00;7389612;19;20013;-57
2023/03/08 08:28:52;;;;;;;16.38;9.93;;;;;;;1.16;71.85;99837.28;7391103;19;19999;-58
2023/03/08 08:31:20;;;;;;;18.35;10.55;;;;;;;1.19;71.79;99842.34;7392848;19;20002;-57
2023/03/08 08:33:46;;;;;;;19.23;10.05;;;;;;;1.16;71.81;99839.91;7397459;19;20514;-58
2023/03/08 08:36:15;;;;;;;18.15;9.85;;;;;;;1.24;71.80;99847.31;7395126;19;20465;-57
2023/03/08 08:38:42;;;;;;;18.27;11.13;;;;;;;1.26;71.39;99848.91;7396695;19;20007;-57
2023/03/08 08:41:08;;;;;;;17.23;10.00;;;;;;;1.33;71.36;99852.84;7397724;19;20002;-59
2023/03/08 08:43:35;;;;;;;18.42;10.07;;;;;;;1.32;71.30;99852.94;7396064;19;20002;-58
2023/03/08 08:46:02;;;;;;;21.40;10.18;;;;;;;1.24;71.29;99842.06;7397301;19;20011;-58
2023/03/08 08:48:28;;;;;;;15.57;9.40;;;;;;;1.30;71.22;99847.78;7395575;19;20017;-58
2023/03/08 08:50:54;;;;;;;20.38;10.75;;;;;;;1.57;70.38;99840.09;7397891;19;20450;-58
2023/03/08 08:53:20;;;;;;;19.08;10.48;;;;;;;1.64;69.91;99845.81;7396759;19;20346;-59
2023/03/08 08:55:46;;;;;;;18.77;10.18;;;;;;;1.60;70.35;99839.91;7393544;19;20006;-58
2023/03/08 08:58:13;;;;;;;18.30;9.90;;;;;;;1.69;69.96;99835.06;7397372;19;19995;-58
2023/03/08 09:00:39;;;;;;;19.50;10.38;;;;;;;1.58;70.41;99835.69;7396681;19;20346;-58
2023/03/08 09:03:05;;;;;;;17.85;10.88;;;;;;;1.81;69.66;99837.75;7397254;19;20026;-58
2023/03/08 09:05:32;;;;;;;19.25;10.77;;;;;;;1.65;69.77;99832.63;7396571;19;20010;-58
2023/03/08 09:07:59;;;;;;;21.58;10.93;;;;;;;1.81;69.71;99831.69;7395790;19;19991;-58
2023/03/08 09:10:30;;;;;;;18.25;10.05;;;;;;;2.00;69.15;99828.78;7397614;19;20002;-58
2023/03/08 09:12:57;;;;;;;16.40;9.75;;;;;;;2.17;68.81;99822.53;7397103;19;19999;-57
2023/03/08 09:15:23;;;;;;;17.95;10.68;;;;;;;2.36;68.23;99818.66;7395306;19;19995;-59
2023/03/08 09:17:49;;;;;;;16.42;10.13;;;;;;;2.43;67.80;99819.13;7400190;19;20028;-57
2023/03/08 09:20:16;;;;;;;20.23;10.40;;;;;;;2.38;67.86;99818.53;7397029;19;19991;-58
2023/03/08 09:22:42;;;;;;;18.50;10.40;;;;;;;2.34;68.12;99814.44;7396298;19;20005;-59
2023/03/08 09:25:09;;;;;;;18.90;10.02;;;;;;;2.31;67.75;99810.25;7391646;19;20366;-58
2023/03/08 09:27:36;;;;;;;19.45;10.38;;;;;;;2.26;67.92;99809.69;7396096;19;20018;-58
2023/03/08 09:30:09;;;;;;;20.20;9.98;;;;;;;2.32;67.82;99805.84;7394502;19;19994;-57
2023/03/08 09:32:35;;;;;;;17.57;10.67;;;;;;;2.30;68.15;99802.47;7396070;19;20006;-58
2023/03/08 09:35:01;;;;;;;20.75;11.13;;;;;;;2.42;67.85;99788.56;7393725;19;20251;-59
2023/03/08 09:37:27;;;;;;;20.25;11.63;;;;;;;2.52;67.89;99792.31;7394252;19;20002;-58
2023/03/08 09:39:53;;;;;;;19.90;11.32;;;;;;;2.51;67.50;99784.56;7396278;19;20342;-58
2023/03/08 09:42:32;;;;;;;19.90;10.95;;;;;;;2.61;67.07;99791.69;7394257;19;20458;-58
2023/03/08 09:45:07;;;;;;;18.85;11.15;;;;;;;2.55;67.00;99786.03;7391512;19;20035;-57
2023/03/08 09:47:56;;;;;;;19.38;10.55;;;;;;;2.47;66.22;99781.28;7395439;19;20006;-57
2023/03/08 09:50:43;;;;;;;18.63;10.38;;;;;;;2.48;67.05;99775.09;7393273;19;20006;-57
2023/03/08 09:53:46;;;;;;;19.73;11.10;;;;;;;2.50;67.18;99780.22;7394883;19;20007;-56
2023/03/08 09:56:39;;;;;;;19.40;10.35;;;;;;;2.52;66.81;99771.31;7392505;19;20003;-57
2023/03/08 09:59:13;;;;;;;19.05;10.93;;;;;;;2.30;67.42;99771.84;7394994;19;20412;-58
2023/03/08 10:01:44;;;;;;;20.83;10.60;;;;;;;2.21;68.29;99772.44;7394367;19;20078;-56
2023/03/08 10:04:17;;;;;;;21.08;11.23;;;;;;;2.35;68.10;99767.19;7394357;19;20174;-58
2023/03/08 10:07:00;;;;;;;18.02;10.32;;;;;;;2.42;67.47;99766.78;7394298;19;20531;-57
2023/03/08 10:09:36;;;;;;;18.33;10.30;;;;;;;2.37;67.52;99769.69;7393319;19;20363;-58
2023/03/08 10:12:20;;;;;;;19.58;9.93;;;;;;;2.30;67.86;99765.78;7395045;19;20006;-58
2023/03/08 10:14:49;;;;;;;19.98;10.57;;;;;;;2.37;67.29;99760.03;7393264;19;20027;-58
2023/03/08 10:17:20;;;;;;;19.30;9.73;;;;;;;2.62;66.93;99748.81;7395369;19;19991;-57
2023/03/08 10:19:54;;;;;;;18.73;9.45;;;;;;;2.73;66.35;99752.50;7393927;19;20111;-59
2023/03/08 10:22:29;;;;;;;18.77;9.48;;;;;;;3.01;65.20;99744.50;7395070;19;20003;-58
2023/03/08 10:25:20;;;;;;;15.38;9.00;;;;;;;3.11;64.09;99748.19;7389648;19;20062;-59
2023/03/08 10:27:50;;;;;;;18.35;9.32;;;;;;;3.00;64.91;99747.22;7393522;19;20006;-58
2023/03/08 10:30:20;;;;;;;20.05;10.20;;;;;;;2.94;65.50;99747.63;7391828;19;20435;-59
2023/03/08 10:32:49;;;;;;;16.55;9.30;;;;;;;3.16;64.92;99741.81;7393302;19;19994;-60
2023/03/08 10:35:17;;;;;;;15.77;9.35;;;;;;;3.18;64.29;99737.28;7390982;19;19999;-60
2023/03/08 10:37:49;;;;;;;16.05;8.60;;;;;;;3.22;64.25;99741.38;7392848;19;20010;-59
2023/03/08 10:40:20;;;;;;;16.60;8.43;;;;;;;3.18;64.06;99738.09;7392542;19;20031;-58
2023/03/08 10:42:58;;;;;;;16.42;9.32;;;;;;;3.12;64.05;99741.16;7393761;19;19994;-58
2023/03/08 10:45:24;;;;;;;18.00;9.57;;;;;;;3.11;64.57;99736.84;7391626;19;20014;-58
2023/03/08 10:47:55;;;;;;;15.32;8.18;;;;;;;3.09;64.37;99733.50;7394392;19;20017;-58
2023/03/08 10:50:32;;;;;;;15.75;8.20;;;;;;;3.12;64.19;99736.75;7394599;19;20003;-59
2023/03/08 10:53:16;;;;;;;15.88;8.30;;;;;;;3.02;63.60;99730.44;7392306;19;20481;-57
2023/03/08 10:55:47;;;;;;;15.73;7.85;;;;;;;2.98;64.42;99725.50;7389609;19;20006;-58
2023/03/08 10:58:42;;;;;;;14.27;7.65;;;;;;;3.08;63.57;99723.94;7393055;19;20038;-58
2023/03/08 11:01:26;;;;;;;13.95;7.43;;;;;;;3.10;63.81;99719.41;7391834;19;20002;-58
2023/03/08 11:04:12;;;;;;;15.80;8.20;;;;;;;3.15;63.61;99725.19;7393040;19;20006;-58
2023/03/08 11:06:38;;;;;;;17.77;8.90;;;;;;;3.22;63.27;99718.59;7391882;19;20002;-58
2023/03/08 11:09:17;;;;;;;16.90;8.43;;;;;;;3.25;63.22;99718.38;7392353;19;20022;-57
2023/03/08 11:11:43;;;;;;;16.95;8.13;;;;;;;3.27;63.66;99713.03;7391178;19;20354;-59
2023/03/08 11:14:10;;;;;;;16.83;8.55;;;;;;;3.28;63.26;99707.69;7389909;19;19994;-58
2023/03/08 11:16:48;;;;;;;18.33;8.10;;;;;;;3.20;63.49;99714.41;7388994;19;19999;-58
2023/03/08 11:19:52;;;;;;;17.45;8.75;;;;;;;3.09;63.79;99710.72;7392538;19;19998;-58
2023/03/08 11:22:30;;;;;;;17.52;9.02;;;;;;;3.08;63.68;99706.41;7392090;19;20425;-58
2023/03/08 11:25:11;;;;;;;17.17;9.57;;;;;;;3.12;63.96;99702.66;7391408;19;20095;-58
2023/03/08 11:28:06;;;;;;;20.58;9.75;;;;;;;2.87;65.29;99694.75;7392213;19;20332;-58
2023/03/08 11:30:52;;;;;;;18.85;9.57;;;;;;;3.07;64.72;99698.63;7392765;19;20328;-58
2023/03/08 11:34:13;;;;;;;16.95;9.18;;;;;;;3.10;64.33;99701.06;7392400;19;20439;-58
2023/03/08 11:36:50;;;;;;;18.25;9.20;;;;;;;3.08;64.80;99695.94;7387871;19;20010;-59